Tiempo atmosférico en la estación meteorológica de Beasain, Gipuzkoa (245 m.)



Fecha
DESCASC
Temp. máxima en grados centígrados (hora)
DESCASC
Temp. mínima en grados centígrados (hora)
DESCASC
Temp. media en grados centígrados
DESCASC
Racha de viento máxima en m/sg (hora)
DESCASC
Velocidad máxima media en intervalos de 10 minutos(hora)
DESCASC
Precipitaciones diarias en mm
DESCASC
Precipitaciones de 00:00 a 06:00 en mm
DESCASC
Precipitaciones de 06:00 a 12:00 en mm
DESCASC
Precipitaciones de 12:00 a 18:00 en mm
DESCASC
Precipitaciones de 18:00 a 24:00 en mm
DESCASC
17-02-2019 19.4 (16:10) 11.7 (03:30) 15.5 14.72 (01:30) 6.94 (15:10) 0 0 0 0 0
16-02-2019 18.3 (14:10) 2.9 (07:00) 10.6 13.89 (17:40) 8.61 (17:40) 0 0 0 0 0
15-02-2019 20.2 (16:20) 5.9 (23:50) 13.1 10.83 (02:20) 5.28 (02:20) 0 0 0 0 0
14-02-2019 17.5 (15:40) 7.1 (00:00) 12.3 11.67 (10:20) 6.94 (10:50) 0 0 0 0 0
13-02-2019 17.3 (16:30) 0.2 (00:00) 8.7 8.61 (14:20) 5 (14:20) 0 0 0 0 0
12-02-2019 13.9 (15:50) 2.3 (00:00) 8.1 5.28 (16:30) 3.06 (16:30) 0.2 0.2 0 0 0
11-02-2019 9.9 (15:40) 4.2 (00:00) 7 7.22 (15:40) 3.89 (15:30) 4 0.4 1.6 1.8 0.2
10-02-2019 13.1 (00:50) 5.2 (00:00) 9.2 10.28 (05:20) 4.72 (12:00) 5.4 0 2.4 2.8 0.2
09-02-2019 16.8 (14:30) 4.1 (00:00) 10.4 9.72 (20:30) 4.72 (14:40) 0 0 0 0 0
08-02-2019 18.2 (15:50) 0.1 (00:00) 9.2 8.06 (17:10) 4.44 (17:00) 0 0 0 0 0
07-02-2019 9.9 (15:00) 3.4 (00:00) 6.6 6.67 (13:00) 3.06 (13:00) 0.2 0 0 0.2 0
06-02-2019 19.2 (15:50) 6.9 (00:00) 13.1 4.17 (17:00) 2.22 (18:00) 0 0 0 0 0
05-02-2019 12.5 (15:00) 5.9 (00:00) 9.2 3.33 (15:00) 1.67 (13:30) 0.8 0.8 0 0 0
04-02-2019 8.8 (15:40) -0.5 (-00:0) 4.2 2.22 (18:40) 1.39 (18:40) 0.4 0 0 0 0.4
03-02-2019 5 (14:20) 0.5 (00:00) 2.8 14.17 (02:00) 6.39 (02:00) 8.6 2.2 4 2.4 0
02-02-2019 7.7 (14:50) 1.5 (00:00) 4.6 17.78 (11:30) 8.33 (08:20) 55.2 9.6 24.2 11 10.4
01-02-2019 11.9 (12:50) 2.9 (00:00) 7.4 15.83 (08:40) 6.67 (18:00) 4.2 1.8 0 2 0.4
31-01-2019 16 (17:40) 5.2 (00:00) 10.6 13.06 (18:30) 6.11 (18:20) 37.8 6 6 0 25.8
30-01-2019 9.7 (16:00) 2.9 (00:00) 6.3 9.44 (01:30) 3.33 (01:50) 14.4 7 5.2 0 2.2
29-01-2019 8.8 (16:40) 5 (00:00) 6.9 16.94 (18:20) 7.78 (20:20) 15.2 2.4 0.6 7.8 4.4
28-01-2019 9.6 (14:20) 5 (00:00) 7.3 15.83 (11:50) 6.67 (15:10) 31 5 13 4.4 8.6
27-01-2019 7.6 (14:30) 5.1 (00:00) 6.3 15 (14:10) 6.39 (14:20) 19.4 1 6 4.2 8.2
26-01-2019 13.5 (14:50) 5.1 (00:00) 9.3 3.89 (01:30) 2.22 (01:40) 0.2 0.2 0 0 0
25-01-2019 9.8 (15:00) 4.5 (00:00) 7.2 10.28 (05:20) 5 (05:20) 11 3.8 5 1.6 0.6
24-01-2019 6.3 (00:00) 3.3 (00:00) 4.8 10.83 (02:00) 3.89 (01:20) 46 23.6 11 7.2 4.2
23-01-2019 9.7 (07:50) 3.8 (00:00) 6.7 15.83 (08:10) 7.22 (07:40) 66.4 16.4 14.6 13 22.4
22-01-2019 5.5 (14:40) 0.8 (00:00) 3.2 6.39 (15:10) 3.33 (15:10) 16.6 0 1.4 8.2 7
21-01-2019 8 (15:50) 2.3 (00:00) 5.1 7.5 (13:20) 3.89 (16:00) 11.8 8.6 2.4 0.2 0.6
20-01-2019 8.6 (14:20) 5 (00:00) 6.8 9.72 (13:40) 3.06 (13:40) 16.8 0.6 7.4 3.6 5.2
19-01-2019 10 (14:40) 1.8 (00:00) 5.9 7.78 (18:20) 4.17 (18:20) 1.4 0.8 0 0 0.6

Gráficas

Temp. máximas Temp. mínimas Temp. medias Precipitaciones Rachas de viento máximas Velocidades máximas media en intervalos de 10 minutos

Datos horarios

Fecha y hora oficial Temperatura (ºC) Velocidad del viento (km/h) Dirección del viento Racha (km/h) Dirección de racha Precipitación (mm) Presión (hPa) Tendencia (hPa) Humedad (%)
2019-02-17 23:00:00 13.3 9 Sur 25 Sur 0 -- -- 35
2019-02-17 22:00:00 12.9 5 Sudeste 13 Sudeste 0 -- -- 32
2019-02-17 21:00:00 13.9 4 Sudeste 21 Sur 0 -- -- 28
2019-02-17 20:00:00 14.8 10 Sur 25 Sur 0 -- -- 24
2019-02-17 19:00:00 15.4 10 Sur 27 Sudeste 0 -- -- 24
2019-02-17 18:00:00 16.9 12 Sur 33 Sudeste 0 -- -- 22
2019-02-17 17:00:00 18.6 18 Sur 37 Sudeste 0 -- -- 20
2019-02-17 16:00:00 19.1 15 Sur 43 Sudeste 0 -- -- 19
2019-02-17 15:00:00 18.7 23 Sudeste 41 Sudeste 0 -- -- 18
2019-02-17 14:00:00 18.8 16 Sur 43 Sur 0 -- -- 19
2019-02-17 13:00:00 18.3 18 Sur 44 Sur 0 -- -- 17
2019-02-17 12:00:00 16.8 19 Sur 40 Sudoeste 0 -- -- 17
2019-02-17 11:00:00 16.1 14 Sur 40 Sudeste 0 -- -- 18
2019-02-17 10:00:00 14.6 11 Sur 31 Sudeste 0 -- -- 17
2019-02-17 09:00:00 12 12 Sudeste 22 Sudeste 0 -- -- 17
2019-02-17 08:00:00 12.1 12 Sur 23 Sur 0 -- -- 17
2019-02-17 07:00:00 11.8 8 Sur 35 Sur 0 -- -- 18
2019-02-17 06:00:00 12.1 6 Sur 24 Sudeste 0 -- -- 22
2019-02-17 05:00:00 12.3 7 Sur 23 Sur 0 -- -- 24
2019-02-17 04:00:00 11.8 6 Sur 25 Sudeste 0 -- -- 29
2019-02-17 03:00:00 12.8 12 Sudeste 28 Sudeste 0 -- -- 26
2019-02-17 02:00:00 13.4 10 Sur 53 Sur 0 -- -- 25
2019-02-17 01:00:00 13.8 14 Sur 32 Sur 0 -- -- 24
2019-02-17 00:00:00 13.9 12 Sudeste 32 Sudeste 0 -- -- 27
2019-02-16 23:00:00 14 7 Sudeste 25 Este 0 -- -- 28
2019-02-16 22:00:00 13.4 8 Sur 17 Este 0 -- -- 30
2019-02-16 21:00:00 14 8 Sur 32 Sur 0 -- -- 30
2019-02-16 20:00:00 14.5 13 Sur 42 Sudeste 0 -- -- 31
2019-02-16 19:00:00 14.9 14 Sur 34 Sudeste 0 -- -- 33
2019-02-16 18:00:00 15.9 20 Sur 50 Sur 0 -- -- 33
2019-02-16 17:00:00 16.7 21 Sur 44 Sudeste 0 -- -- 33
2019-02-16 16:00:00 17.2 18 Sur 37 Sudeste 0 -- -- 33
2019-02-16 15:00:00 17.9 17 Sur 32 Sudeste 0 -- -- 29
2019-02-16 14:00:00 18.2 14 Sur 44 Sur 0 -- -- 33
2019-02-16 13:00:00 17.2 14 Sur 42 Sur 0 -- -- 36
2019-02-16 12:00:00 16.1 18 Sur 41 Sudeste 0 -- -- 38
2019-02-16 11:00:00 15.3 17 Sur 29 Sudeste 0 -- -- 41
2019-02-16 10:00:00 11.1 5 Sudeste 17 Sudoeste 0 -- -- 56
2019-02-16 09:00:00 4.1 3 Nordeste 12 Norte 0 -- -- 88
2019-02-16 08:00:00 3.2 2 Norte 8 Norte 0 -- -- 89
2019-02-16 07:00:00 2.9 4 Este 8 Nordeste 0 -- -- 89
2019-02-16 06:00:00 3.2 2 Sudeste 6 Sudeste 0 -- -- 88
2019-02-16 05:00:00 3.5 2 Sudeste 6 Sudeste 0 -- -- 87
2019-02-16 04:00:00 3.6 0 Calma 8 Norte 0 -- -- 86
2019-02-16 03:00:00 4.3 0 Calma 6 Sudeste 0 -- -- 82
2019-02-16 02:00:00 4.9 0 Calma 6 Sudeste 0 -- -- 80
2019-02-16 01:00:00 5.4 3 Este 8 Norte 0 -- -- 76
2019-02-16 00:00:00 5.9 3 Norte 9 Sur 0 -- -- 75
2019-02-15 23:00:00 6.5 2 Sur 10 Sur 0 -- -- 73
2019-02-15 22:00:00 7.5 2 Oeste 7 Sur 0 -- -- 65
2019-02-15 21:00:00 8.8 3 Noroeste 8 Norte 0 -- -- 55
2019-02-15 20:00:00 10.5 6 Norte 8 Norte 0 -- -- 46
2019-02-15 19:00:00 13.5 2 Norte 11 Sudeste 0 -- -- 32
2019-02-15 18:00:00 16.6 7 Sur 16 Sudeste 0 -- -- 24
2019-02-15 17:00:00 19.6 8 Sur 17 Sudoeste 0 -- -- 20
2019-02-15 16:00:00 19.9 9 Sur 21 Sudeste 0 -- -- 19
2019-02-15 15:00:00 19.1 13 Sur 25 Sudeste 0 -- -- 19
2019-02-15 14:00:00 18.3 18 Sur 33 Sudeste 0 -- -- 20
2019-02-15 13:00:00 17.3 16 Sudeste 27 Sur 0 -- -- 26
2019-02-15 12:00:00 16.2 12 Sur 29 Sudeste 0 -- -- 32
2019-02-15 11:00:00 14.5 16 Sur 32 Sudeste 0 -- -- 36
2019-02-15 10:00:00 12 8 Sudeste 20 Sudeste 0 -- -- 38
2019-02-15 09:00:00 6.3 2 Noroeste 8 Sudoeste 0 -- -- 60
2019-02-15 08:00:00 8 3 Noroeste 10 Nordeste 0 -- -- 52
2019-02-15 07:00:00 8.7 3 Noroeste 12 Sudeste 0 -- -- 51
2019-02-15 06:00:00 9.8 3 Sur 20 Sur 0 -- -- 49
2019-02-15 05:00:00 10.9 7 Sur 37 Sudeste 0 -- -- 44
2019-02-15 04:00:00 11.5 14 Sur 33 Sudeste 0 -- -- 46
2019-02-15 03:00:00 12.2 16 Sudeste 39 Sur 0 -- -- 43
2019-02-15 02:00:00 11.8 15 Sur 37 Sudeste 0 -- -- 45
2019-02-15 01:00:00 10.8 12 Sur 32 Sur 0 -- -- 51
2019-02-15 00:00:00 10.5 7 Sur 33 Sur 0 -- -- 50
2019-02-14 23:00:00 10.9 5 Sudeste 28 Sur 0 -- -- 48
2019-02-14 22:00:00 12 5 Sur 39 Sudeste 0 -- -- 40
2019-02-14 21:00:00 11.9 13 Sur 27 Sur 0 -- -- 37
2019-02-14 20:00:00 12.6 6 Sur 21 Sur 0 -- -- 36
2019-02-14 19:00:00 13.6 9 Sur 27 Sur 0 -- -- 32
2019-02-14 18:00:00 15.3 11 Sur 36 Sur 0 -- -- 32
2019-02-14 17:00:00 17.2 16 Sur 40 Sur 0 -- -- 26
2019-02-14 16:00:00 17.1 23 Sudeste 37 Sudeste 0 -- -- 25
2019-02-14 15:00:00 17.2 15 Sur 37 Sur 0 -- -- 31
2019-02-14 14:00:00 16.8 19 Sur 37 Sudeste 0 -- -- 30
2019-02-14 13:00:00 16.1 16 Sur 41 Sur 0 -- -- 31
2019-02-14 12:00:00 14.3 21 Sur 36 Sudeste 0 -- -- 37
2019-02-14 11:00:00 13.5 25 Sur 42 Sudeste 0 -- -- 42
2019-02-14 10:00:00 13 16 Sur 35 Sudeste 0 -- -- 41
2019-02-14 09:00:00 10.2 9 Sur 31 Sudeste 0 -- -- 53
2019-02-14 08:00:00 10.6 12 Sur 29 Este 0 -- -- 53
2019-02-14 07:00:00 9.8 13 Sur 38 Sur 0 -- -- 60
2019-02-14 06:00:00 9.8 10 Sur 32 Sudeste 0 -- -- 60
2019-02-14 05:00:00 10.1 10 Sur 26 Sudeste 0 -- -- 61
2019-02-14 04:00:00 10.5 12 Sur 31 Sudeste 0 -- -- 59
2019-02-14 03:00:00 10.3 12 Sur 26 Sur 0 -- -- 55
2019-02-14 02:00:00 8.7 8 Sur 19 Sur 0 -- -- 68
2019-02-14 01:00:00 8.5 6 Sur 23 Sur 0 -- -- 70
2019-02-14 00:00:00 7.3 4 Este 17 Sur 0 -- -- 78
2019-02-13 23:00:00 6.2 3 Noroeste 9 Norte 0 -- -- 85
2019-02-13 22:00:00 6.9 3 Norte 8 Noroeste 0 -- -- 80
2019-02-13 21:00:00 7.5 4 Norte 7 Noroeste 0 -- -- 77
2019-02-13 20:00:00 9 3 Norte 9 Noroeste 0 -- -- 69
2019-02-13 19:00:00 11.1 4 Norte 10 Sur 0 -- -- 61
2019-02-13 18:00:00 14.9 7 Sur 22 Sur 0 -- -- 44
2019-02-13 17:00:00 16.8 14 Sur 23 Sudeste 0 -- -- 40
2019-02-13 16:00:00 17.1 13 Sudeste 26 Sur 0 -- -- 40
2019-02-13 15:00:00 16.8 13 Sur 31 Sudeste 0 -- -- 42
2019-02-13 14:00:00 15.4 7 Sudeste 15 Sudeste 0 -- -- 50
2019-02-13 13:00:00 11.1 3 Sudoeste 5 Oeste 0 -- -- 78
2019-02-13 12:00:00 5.9 3 Sudoeste 7 Sudoeste 0 -- -- 100
2019-02-13 11:00:00 2.6 2 Sur 4 Sur 0 -- -- 100
2019-02-13 10:00:00 1 0 Calma 4 Oeste 0 -- -- 100
2019-02-13 09:00:00 0.2 2 Norte 4 Noroeste 0 -- -- 100
2019-02-13 08:00:00 0.4 3 Noroeste 4 Noroeste 0 -- -- 100
2019-02-13 07:00:00 0.6 3 Norte 4 Norte 0 -- -- 100
2019-02-13 06:00:00 0.8 0 Calma 3 Noroeste 0 -- -- 100
2019-02-13 05:00:00 0.9 0 Calma 4 Sudeste 0 -- -- 100
2019-02-13 04:00:00 1.3 0 Calma 4 Sudeste 0 -- -- 100
2019-02-13 03:00:00 1.5 0 Calma 6 Sudeste 0 -- -- 100
2019-02-13 02:00:00 1.3 4 Sudeste 6 Sudeste 0 -- -- 100
2019-02-13 01:00:00 2.2 0 Calma 4 Sudeste 0 -- -- 100
2019-02-13 00:00:00 2.7 0 Calma 4 Noroeste 0 -- -- 99
2019-02-12 23:00:00 3.5 0 Calma 2 Noroeste 0 -- -- 99
2019-02-12 22:00:00 4.2 0 Calma 4 Noroeste 0 -- -- 97
2019-02-12 21:00:00 5.1 0 Calma 4 Noroeste 0 -- -- 95
2019-02-12 20:00:00 6.4 3 Norte 8 Norte 0 -- -- 92
2019-02-12 19:00:00 7.7 5 Norte 14 Norte 0 -- -- 87
2019-02-12 18:00:00 9.6 8 Noroeste 15 Norte 0 -- -- 79
2019-02-12 17:00:00 12.2 9 Noroeste 19 Norte 0 -- -- 67
2019-02-12 16:00:00 13.4 6 Noroeste 9 Noroeste 0 -- -- 59
2019-02-12 15:00:00 13 5 Sur 11 Sudoeste 0 -- -- 64
2019-02-12 14:00:00 11.2 5 Sudoeste 9 Sudoeste 0 -- -- 66
2019-02-12 13:00:00 8.2 5 Sur 9 Oeste 0 -- -- 96
2019-02-12 12:00:00 5.2 4 Sudeste 8 Sudeste 0 -- -- 100
2019-02-12 11:00:00 4 4 Sudoeste 6 Noroeste 0 -- -- 100
2019-02-12 10:00:00 3.4 3 Noroeste 6 Noroeste 0 -- -- 100
2019-02-12 09:00:00 3 0 Calma 6 Norte 0 -- -- 100
2019-02-12 08:00:00 2.7 4 Norte 5 Noroeste 0 -- -- 100
2019-02-12 07:00:00 2.6 0 Calma 5 Sudeste 0 -- -- 100
2019-02-12 06:00:00 2.4 0 Calma 5 Noroeste 0 -- -- 100
2019-02-12 05:00:00 2.9 2 Norte 7 Sudeste 0 -- -- 100
2019-02-12 04:00:00 3 0 Calma 6 Este 0 -- -- 100
2019-02-12 03:00:00 3.9 2 Norte 6 Sudeste 0.2 -- -- 100
2019-02-12 02:00:00 4.2 0 Calma 5 Noroeste 0 -- -- 100
2019-02-12 01:00:00 4.3 3 Norte 6 Sudeste 0 -- -- 100
2019-02-12 00:00:00 4.6 0 Calma 8 Sudeste 0 -- -- 100
2019-02-11 23:00:00 4.8 2 Sudeste 4 Sudeste 0 -- -- 100
2019-02-11 22:00:00 5.4 0 Calma 8 Norte 0 -- -- 100
2019-02-11 21:00:00 5.1 6 Norte 10 Noroeste 0 -- -- 99
2019-02-11 20:00:00 6.4 4 Norte 9 Noroeste 0 -- -- 98
2019-02-11 19:00:00 7 6 Norte 16 Norte 0.2 -- -- 98
2019-02-11 18:00:00 7.7 3 Norte 7 Noroeste 0 -- -- 96
2019-02-11 17:00:00 8.2 3 Noroeste 19 Noroeste 0.4 -- -- 93
2019-02-11 16:00:00 9 8 Noroeste 26 Oeste 0.2 -- -- 90
2019-02-11 15:00:00 8.9 9 Oeste 20 Noroeste 0 -- -- 90
2019-02-11 14:00:00 8.4 4 Noroeste 21 Noroeste 0.4 -- -- 92
2019-02-11 13:00:00 8 7 Noroeste 21 Noroeste 0.8 -- -- 94
2019-02-11 12:00:00 8.7 8 Noroeste 21 Noroeste 0.2 -- -- 89
2019-02-11 11:00:00 7.7 10 Noroeste 21 Norte 0.2 -- -- 92
2019-02-11 10:00:00 6.5 8 Noroeste 14 Noroeste 0.2 -- -- 100
2019-02-11 09:00:00 5.9 0 Calma 14 Noroeste 1 -- -- 100
2019-02-11 08:00:00 5.9 8 Noroeste 17 Noroeste 0 -- -- 99
2019-02-11 07:00:00 5.8 3 Noroeste 9 Noroeste 0 -- -- 99
2019-02-11 06:00:00 6.2 2 Noroeste 18 Noroeste 0.4 -- -- 96
2019-02-11 05:00:00 5.7 4 Noroeste 10 Norte 0 -- -- 100
2019-02-11 04:00:00 4.8 4 Sur 8 Sudeste 0 -- -- 100
2019-02-11 03:00:00 4.5 2 Norte 11 Sudeste 0 -- -- 100
2019-02-11 02:00:00 4.5 4 Norte 10 Noroeste 0 -- -- 99
2019-02-11 01:00:00 4.8 2 Noroeste 8 Norte 0 -- -- 99
2019-02-11 00:00:00 5.2 4 Norte 8 Norte 0 -- -- 99
2019-02-10 23:00:00 6.4 3 Norte 7 Noroeste 0.2 -- -- 100
2019-02-10 22:00:00 6.7 5 Norte 6 Nordeste 0 -- -- 100
2019-02-10 21:00:00 6.9 2 Este 6 Noroeste 0 -- -- 99
2019-02-10 20:00:00 7 2 Nordeste 5 Este 0 -- -- 99
2019-02-10 19:00:00 7.2 3 Norte 9 Noroeste 0 -- -- 98
2019-02-10 18:00:00 7.7 5 Noroeste 13 Noroeste 0 -- -- 97
2019-02-10 17:00:00 8 6 Noroeste 34 Norte 0.4 -- -- 96
2019-02-10 16:00:00 8.8 10 Noroeste 26 Noroeste 0.4 -- -- 93
2019-02-10 15:00:00 9.6 2 Noroeste 17 Norte 0.4 -- -- 92
2019-02-10 14:00:00 9.7 4 Oeste 22 Noroeste 0.6 -- -- 96
2019-02-10 13:00:00 9.4 9 Noroeste 21 Norte 1 -- -- 92
2019-02-10 12:00:00 10 17 Noroeste 36 Noroeste 0.8 -- -- 92
2019-02-10 11:00:00 12.9 12 Norte 35 Noroeste 0.2 -- -- 70
2019-02-10 10:00:00 10.9 7 Nordeste 21 Este 0 -- -- 81
2019-02-10 09:00:00 9.3 7 Norte 13 Noroeste 0.4 -- -- 95
2019-02-10 08:00:00 10.2 6 Este 33 Sur 1 -- -- 86
2019-02-10 07:00:00 12.8 7 Sur 35 Oeste 0 -- -- 62
2019-02-10 06:00:00 12.9 6 Sur 37 Sur 0 -- -- 57
2019-02-10 05:00:00 12.5 13 Sur 29 Sudoeste 0 -- -- 56
2019-02-10 04:00:00 12.1 5 Este 21 Oeste 0 -- -- 59
2019-02-10 03:00:00 11.9 9 Sudeste 26 Sur 0 -- -- 57
2019-02-10 02:00:00 12.6 6 Sudeste 26 Sudeste 0 -- -- 55
2019-02-10 01:00:00 12.9 4 Sur 32 Sudoeste 0 -- -- 54
2019-02-10 00:00:00 13 4 Sur 23 Sudoeste 0 -- -- 58
2019-02-09 23:00:00 13.3 4 Sudeste 23 Sudoeste 0 -- -- 57
2019-02-09 22:00:00 13.8 13 Sur 28 Sur 0 -- -- 54
2019-02-09 21:00:00 13.4 14 Sur 35 Sur 0 -- -- 59
2019-02-09 20:00:00 12 4 Oeste 20 Este 0 -- -- 70
2019-02-09 19:00:00 13.7 8 Sudeste 27 Sur 0 -- -- 61
2019-02-09 18:00:00 14.6 4 Sudeste 20 Sudeste 0 -- -- 55
2019-02-09 17:00:00 15.5 4 Norte 22 Sur 0 -- -- 55
2019-02-09 16:00:00 16.3 10 Sudoeste 32 Sur 0 -- -- 52
2019-02-09 15:00:00 16.2 15 Sur 30 Sur 0 -- -- 51
2019-02-09 14:00:00 16.6 8 Sudoeste 14 Sudoeste 0 -- -- 49
2019-02-09 13:00:00 15.8 8 Sur 18 Sur 0 -- -- 53
2019-02-09 12:00:00 13.2 4 Sudeste 9 Sur 0 -- -- 66
2019-02-09 11:00:00 8.9 6 Sudeste 9 Sudeste 0 -- -- 81
2019-02-09 10:00:00 6.2 3 Sudeste 5 Sudeste 0 -- -- 92
2019-02-09 09:00:00 4.4 2 Norte 5 Sudeste 0 -- -- 98
2019-02-09 08:00:00 4.4 0 Calma 4 Noroeste 0 -- -- 96
2019-02-09 07:00:00 5.1 2 Sudoeste 5 Noroeste 0 -- -- 94
2019-02-09 06:00:00 5.9 0 Calma 5 Noroeste 0 -- -- 92
2019-02-09 05:00:00 6.6 0 Calma 5 Noroeste 0 -- -- 91
2019-02-09 04:00:00 6.9 2 Norte 4 Sur 0 -- -- 87
2019-02-09 03:00:00 7.4 0 Calma 5 Noroeste 0 -- -- 84
2019-02-09 02:00:00 8 3 Noroeste 9 Noroeste 0 -- -- 80
2019-02-09 01:00:00 9 4 Norte 10 Este 0 -- -- 75
2019-02-09 00:00:00 10.4 4 Sudeste 14 Norte 0 -- -- 66
2019-02-08 23:00:00 10.8 4 Sur 13 Sudoeste 0 -- -- 65
2019-02-08 22:00:00 11 4 Noroeste 17 Nordeste 0 -- -- 67
2019-02-08 21:00:00 11 7 Noroeste 16 Norte 0 -- -- 65
2019-02-08 20:00:00 10.4 5 Norte 13 Noroeste 0 -- -- 67
2019-02-08 19:00:00 11.4 9 Norte 12 Noroeste 0 -- -- 62
2019-02-08 18:00:00 15 5 Noroeste 29 Noroeste 0 -- -- 51
2019-02-08 17:00:00 16.7 16 Norte 27 Norte 0 -- -- 47
2019-02-08 16:00:00 18 5 Norte 16 Nordeste 0 -- -- 43
2019-02-08 15:00:00 17.6 7 Sudoeste 22 Sur 0 -- -- 45
2019-02-08 14:00:00 16.2 14 Sur 28 Sur 0 -- -- 47
2019-02-08 13:00:00 14.7 9 Sur 22 Sudeste 0 -- -- 51
2019-02-08 12:00:00 11.8 7 Sur 20 Sudeste 0 -- -- 73
2019-02-08 11:00:00 7.3 0 Calma 10 Sur 0 -- -- 100
2019-02-08 10:00:00 3.7 2 Sur 5 Sur 0 -- -- 100
2019-02-08 09:00:00 0.7 0 Calma 5 Norte 0 -- -- 100
2019-02-08 08:00:00 0.4 3 Sudeste 5 Sudeste 0 -- -- 100
2019-02-08 07:00:00 0.8 3 Sur 8 Este 0 -- -- 100
2019-02-08 06:00:00 0.9 3 Sudeste 6 Sudeste 0 -- -- 100
2019-02-08 05:00:00 1 4 Sudeste 6 Este 0 -- -- 100
2019-02-08 04:00:00 1.7 0 Calma 4 Noroeste 0 -- -- 100
2019-02-08 03:00:00 1.9 3 Norte 8 Sudeste 0 -- -- 100
2019-02-08 02:00:00 2.5 0 Calma 3 Noroeste 0 -- -- 100
2019-02-08 01:00:00 2.9 0 Calma 5 Sudeste 0 -- -- 100
2019-02-08 00:00:00 3.4 0 Calma 4 Oeste 0 -- -- 100
2019-02-07 23:00:00 4 2 Noroeste 4 Noroeste 0 -- -- 99
2019-02-07 22:00:00 4.9 0 Calma 4 Noroeste 0 -- -- 97
2019-02-07 21:00:00 5.9 4 Noroeste 6 Noroeste 0 -- -- 94
2019-02-07 20:00:00 7.4 3 Noroeste 6 Noroeste 0 -- -- 89
2019-02-07 19:00:00 8.4 3 Noroeste 5 Noroeste 0 -- -- 88
2019-02-07 18:00:00 9.4 0 Calma 10 Oeste 0 -- -- 83
2019-02-07 17:00:00 9.8 4 Oeste 9 Noroeste 0 -- -- 82
2019-02-07 16:00:00 9.7 6 Noroeste 16 Noroeste 0 -- -- 85
2019-02-07 15:00:00 9.9 5 Sudoeste 12 Oeste 0 -- -- 90
2019-02-07 14:00:00 9.7 4 Oeste 19 Noroeste 0 -- -- 93
2019-02-07 13:00:00 9.2 11 Noroeste 24 Noroeste 0.2 -- -- 94
2019-02-07 12:00:00 8.6 3 Sur 6 Sur 0 -- -- 96
2019-02-07 11:00:00 6.7 0 Calma 4 Noroeste 0 -- -- 100
2019-02-07 10:00:00 5.8 0 Calma 4 Norte 0 -- -- 100
2019-02-07 09:00:00 5.4 4 Sudeste 6 Sudeste 0 -- -- 100
2019-02-07 08:00:00 5 3 Norte 5 Norte 0 -- -- 100
2019-02-07 07:00:00 4.9 0 Calma 3 Sudeste 0 -- -- 100
2019-02-07 06:00:00 5.4 2 Norte 6 Sudeste 0 -- -- 100
2019-02-07 05:00:00 5.6 5 Sudeste 7 Sudeste 0 -- -- 100
2019-02-07 04:00:00 6.2 2 Este 6 Noroeste 0 -- -- 98
2019-02-07 03:00:00 6.6 3 Norte 5 Sur 0 -- -- 99
2019-02-07 02:00:00 6.3 3 Sur 5 Sur 0 -- -- 98
2019-02-07 01:00:00 6.8 2 Sudeste 4 Este 0 -- -- 97
2019-02-07 00:00:00 6.9 4 Norte 7 Este 0 -- -- 95
2019-02-06 23:00:00 7.7 0 Calma 7 Noroeste 0 -- -- 92
2019-02-06 22:00:00 8.7 2 Norte 9 Sudeste 0 -- -- 88
2019-02-06 21:00:00 9.7 2 Sudeste 11 Noroeste 0 -- -- 83
2019-02-06 20:00:00 10.7 5 Noroeste 12 Noroeste 0 -- -- 78
2019-02-06 19:00:00 12.7 4 Noroeste 14 Norte 0 -- -- 70
2019-02-06 18:00:00 15.1 8 Norte 14 Sudeste 0 -- -- 60
2019-02-06 17:00:00 18.3 5 Noroeste 15 Norte 0 -- -- 47
2019-02-06 16:00:00 19.2 2 Norte 6 Oeste 0 -- -- 58
2019-02-06 15:00:00 18.3 3 Este 7 Oeste 0 -- -- 54
2019-02-06 14:00:00 16.5 4 Oeste 8 Sudoeste 0 -- -- 69
2019-02-06 13:00:00 14.4 4 Sur 8 Sudoeste 0 -- -- 74
2019-02-06 12:00:00 11.6 3 Oeste 6 Sudoeste 0 -- -- 86
2019-02-06 11:00:00 9.5 0 Calma 3 Este 0 -- -- 94
2019-02-06 10:00:00 8.6 0 Calma 2 Norte 0 -- -- 100
2019-02-06 09:00:00 8 2 Sudeste 4 Sudeste 0 -- -- 100
2019-02-06 08:00:00 7.8 0 Calma 4 Norte 0 -- -- 100
2019-02-06 07:00:00 7.9 0 Calma 5 Sudeste 0 -- -- 100
2019-02-06 06:00:00 8.2 0 Calma 4 Sudeste 0 -- -- 100
2019-02-06 05:00:00 8.3 0 Calma 5 Sudeste 0 -- -- 100
2019-02-06 04:00:00 9 2 Sudeste 4 Sur 0 -- -- 100
2019-02-06 03:00:00 9 0 Calma 4 Sudeste 0 -- -- 100
2019-02-06 02:00:00 9.2 0 Calma 4 Sudeste 0 -- -- 100
2019-02-06 01:00:00 9.3 0 Calma 4 Noroeste 0 -- -- 100
2019-02-06 00:00:00 9.4 0 Calma 4 Noroeste 0 -- -- 100
2019-02-05 23:00:00 9.6 0 Calma 2 Noroeste 0 -- -- 100
2019-02-05 22:00:00 9.9 0 Calma 2 Noroeste 0 -- -- 100
2019-02-05 21:00:00 10.2 0 Calma 3 Este 0 -- -- 100
2019-02-05 20:00:00 10.4 0 Calma 2 Sur 0 -- -- 99
2019-02-05 19:00:00 11 2 Sudoeste 5 Sur 0 -- -- 96
2019-02-05 18:00:00 11.7 0 Calma 4 Este 0 -- -- 93
2019-02-05 17:00:00 12.2 3 Sur 6 Sudeste 0 -- -- 90
2019-02-05 16:00:00 12.4 3 Este 12 Este 0 -- -- 89
2019-02-05 15:00:00 12.5 5 Sudeste 12 Sudeste 0 -- -- 86
2019-02-05 14:00:00 11.7 0 Calma 10 Este 0 -- -- 92
2019-02-05 13:00:00 11.2 3 Sudeste 6 Sudeste 0 -- -- 93
2019-02-05 12:00:00 9.9 3 Sudeste 6 Sudeste 0 -- -- 100
2019-02-05 11:00:00 7.9 0 Calma 4 Este 0 -- -- 100
2019-02-05 10:00:00 6.9 0 Calma 3 Sur 0 -- -- 100
2019-02-05 09:00:00 6.2 3 Sudeste 9 Sudeste 0 -- -- 100
2019-02-05 08:00:00 6.1 2 Norte 3 Norte 0 -- -- 100
2019-02-05 07:00:00 6.1 2 Sudeste 4 Noroeste 0 -- -- 100
2019-02-05 06:00:00 6 4 Sudeste 6 Sudeste 0.2 -- -- 100
2019-02-05 05:00:00 5.9 2 Norte 4 Sudeste 0 -- -- 100
2019-02-05 04:00:00 6.1 0 Calma 4 Noroeste 0 -- -- 100
2019-02-05 03:00:00 6 0 Calma 4 Nordeste 0.2 -- -- 100
2019-02-05 02:00:00 6 0 Calma 2 Noroeste 0.2 -- -- 100
2019-02-05 01:00:00 6 0 Calma 3 Noroeste 0.2 -- -- 100
2019-02-05 00:00:00 6 0 Calma 3 Noroeste 0.4 -- -- 100
2019-02-04 23:00:00 6 0 Calma 8 Noroeste 0.2 -- -- 100
2019-02-04 22:00:00 6 3 Noroeste 5 Noroeste 0 -- -- 100
2019-02-04 21:00:00 6.2 3 Norte 5 Norte 0 -- -- 99
2019-02-04 20:00:00 6.3 2 Norte 5 Noroeste 0 -- -- 99
2019-02-04 19:00:00 6.6 3 Norte 8 Norte 0 -- -- 98
2019-02-04 18:00:00 7.4 3 Norte 6 Noroeste 0 -- -- 96
2019-02-04 17:00:00 8.1 3 Noroeste 7 Noroeste 0 -- -- 90
2019-02-04 16:00:00 8.8 0 Calma 4 Noroeste 0 -- -- 91
2019-02-04 15:00:00 8.1 0 Calma 4 Sudeste 0 -- -- 88
2019-02-04 14:00:00 7.1 0 Calma 8 Este 0 -- -- 99
2019-02-04 13:00:00 5.2 4 Sur 7 Sur 0 -- -- 100
2019-02-04 12:00:00 1.8 2 Sudoeste 6 Sur 0 -- -- 100
2019-02-04 11:00:00 0.6 2 Sur 5 Noroeste 0 -- -- 100
2019-02-04 10:00:00 -0.2 3 Sur 5 Sudeste 0 -- -- 100
2019-02-04 09:00:00 -0.4 2 Sudoeste 5 Oeste 0 -- -- 100
2019-02-04 08:00:00 -0.4 2 Sudoeste 6 Sur 0 -- -- 100
2019-02-04 07:00:00 -0.1 0 Calma 5 Noroeste 0 -- -- 100
2019-02-04 06:00:00 -0.2 0 Calma 6 Noroeste 0 -- -- 100
2019-02-04 05:00:00 -0.1 3 Norte 7 Sur 0 -- -- 100
2019-02-04 04:00:00 -0.1 0 Calma 6 Norte 0 -- -- 100
2019-02-04 03:00:00 -0.5 4 Sudeste 8 Sudeste 0 -- -- 100
2019-02-04 02:00:00 0 0 Calma 4 Norte 0 -- -- 100
2019-02-04 01:00:00 0.2 2 Sudeste 5 Norte 0 -- -- 100
2019-02-04 00:00:00 0.5 4 Sudeste 7 Sudeste 0 -- -- 100
2019-02-03 23:00:00 0.8 0 Calma 8 Sudeste 0 -- -- 100
2019-02-03 22:00:00 1.1 2 Sudeste 8 Sudeste 0 -- -- 100
2019-02-03 21:00:00 1.8 3 Sudeste 8 Sudeste 0 -- -- 100
2019-02-03 20:00:00 1.7 2 Noroeste 4 Noroeste 0 -- -- 100
2019-02-03 19:00:00 1.9 3 Noroeste 8 Noroeste 0 -- -- 100
2019-02-03 18:00:00 2.8 3 Norte 7 Noroeste 0 -- -- 100
2019-02-03 17:00:00 3.3 5 Noroeste 15 Noroeste 0.4 -- -- 99
2019-02-03 16:00:00 3.8 5 Noroeste 17 Noroeste 1 -- -- 97
2019-02-03 15:00:00 4.4 4 Nordeste 13 Sudoeste 0.8 -- -- 94
2019-02-03 14:00:00 4.5 3 Oeste 11 Sudoeste 0 -- -- 95
2019-02-03 13:00:00 4.7 6 Este 12 Nordeste 0.2 -- -- 92
2019-02-03 12:00:00 3.8 0 Calma 13 Este 1.2 -- -- 99
2019-02-03 11:00:00 3 4 Sudeste 12 Nordeste 0.6 -- -- 100
2019-02-03 10:00:00 1.7 4 Este 12 Sudeste 1 -- -- 100
2019-02-03 09:00:00 1.6 5 Este 15 Este 0.8 -- -- 99
2019-02-03 08:00:00 1.7 3 Nordeste 23 Noroeste 0.2 -- -- 98
2019-02-03 07:00:00 2.3 6 Norte 26 Noroeste 0.2 -- -- 96
2019-02-03 06:00:00 2.8 6 Norte 23 Norte 0.2 -- -- 89
2019-02-03 05:00:00 2.7 14 Norte 41 Noroeste 1 -- -- 89
2019-02-03 04:00:00 1.8 3 Este 8 Este 0.4 -- -- 97
2019-02-03 03:00:00 2 4 Este 33 Norte 0.2 -- -- 95
2019-02-03 02:00:00 3.4 23 Norte 51 Nordeste 0.4 -- -- 86
2019-02-03 01:00:00 3 9 Noroeste 21 Norte 0 -- -- 87
2019-02-03 00:00:00 2.5 2 Norte 21 Nordeste 1.4 -- -- 95
2019-02-02 23:00:00 1.8 3 Sur 21 Noroeste 1.4 -- -- 98
2019-02-02 22:00:00 2.3 4 Nordeste 23 Noroeste 1.6 -- -- 94
2019-02-02 21:00:00 2.7 15 Noroeste 41 Norte 2.8 -- -- 92
2019-02-02 20:00:00 3.5 17 Noroeste 35 Noroeste 0.4 -- -- 87
2019-02-02 19:00:00 3.7 14 Norte 35 Norte 2.8 -- -- 91
2019-02-02 18:00:00 2.8 7 Norte 30 Norte 5.6 -- -- 94
2019-02-02 17:00:00 2.7 3 Noroeste 26 Noroeste 4.6 -- -- 96
2019-02-02 16:00:00 5.3 19 Noroeste 43 Noroeste 0.4 -- -- 80
2019-02-02 15:00:00 7.6 18 Noroeste 44 Norte 0 -- -- 58
2019-02-02 14:00:00 6.9 22 Noroeste 42 Noroeste 0 -- -- 65
2019-02-02 13:00:00 5.7 18 Noroeste 54 Norte 0.4 -- -- 82
2019-02-02 12:00:00 3.3 13 Noroeste 64 Noroeste 5.2 -- -- 96
2019-02-02 11:00:00 3.9 18 Norte 52 Noroeste 2.6 -- -- 95
2019-02-02 10:00:00 3.9 18 Norte 37 Noroeste 2.8 -- -- 95
2019-02-02 09:00:00 4.5 15 Noroeste 58 Noroeste 3.6 -- -- 96
2019-02-02 08:00:00 4.7 24 Norte 45 Norte 4 -- -- 94
2019-02-02 07:00:00 3.9 15 Noroeste 35 Noroeste 6 -- -- 99
2019-02-02 06:00:00 2.7 9 Noroeste 30 Noroeste 7 -- -- 97
2019-02-02 05:00:00 4.4 8 Noroeste 25 Noroeste 2.4 -- -- 96
2019-02-02 04:00:00 5 4 Sur 17 Oeste 0 -- -- 92
2019-02-02 03:00:00 5 5 Norte 19 Noroeste 0.2 -- -- 93
2019-02-02 02:00:00 3.8 3 Noroeste 7 Noroeste 0 -- -- 100
2019-02-02 01:00:00 3.8 2 Noroeste 8 Noroeste 0 -- -- 99
2019-02-02 00:00:00 4.2 6 Noroeste 29 Noroeste 0.2 -- -- 96
2019-02-01 23:00:00 3 0 Calma 4 Noroeste 0 -- -- 100
2019-02-01 22:00:00 3.1 3 Noroeste 6 Norte 0 -- -- 100
2019-02-01 21:00:00 3 3 Noroeste 10 Noroeste 0 -- -- 99
2019-02-01 20:00:00 3.6 7 Norte 10 Noroeste 0 -- -- 97
2019-02-01 19:00:00 4.6 2 Sudeste 21 Noroeste 0.2 -- -- 95
2019-02-01 18:00:00 5.5 24 Noroeste 47 Noroeste 0.6 -- -- 87
2019-02-01 17:00:00 8.1 8 Nordeste 34 Noroeste 0.6 -- -- 67
2019-02-01 16:00:00 8 9 Norte 32 Noroeste 0.8 -- -- 80
2019-02-01 15:00:00 11 10 Norte 34 Sur 0 -- -- 55
2019-02-01 14:00:00 11 14 Noroeste 51 Sur 0 -- -- 55
2019-02-01 13:00:00 11.6 14 Sur 36 Sudeste 0 -- -- 51
2019-02-01 12:00:00 10.6 10 Norte 42 Sudeste 0 -- -- 54
2019-02-01 11:00:00 10.1 13 Sudeste 53 Sur 0 -- -- 57
2019-02-01 10:00:00 9.9 16 Sudeste 53 Sur 0 -- -- 58
2019-02-01 09:00:00 9.8 20 Este 57 Sur 0 -- -- 59
2019-02-01 08:00:00 9.9 18 Sudeste 49 Sur 0 -- -- 66
2019-02-01 07:00:00 9.7 9 Norte 22 Sudeste 0 -- -- 66
2019-02-01 06:00:00 7.6 6 Nordeste 17 Nordeste 0 -- -- 95
2019-02-01 05:00:00 7 3 Norte 6 Noroeste 0 -- -- 100
2019-02-01 04:00:00 7.6 3 Este 5 Este 0.2 -- -- 100
2019-02-01 03:00:00 8 2 Sudeste 6 Este 1 -- -- 100
2019-02-01 02:00:00 8.2 0 Calma 10 Sudeste 0.6 -- -- 100
2019-02-01 01:00:00 8.3 3 Este 16 Noroeste 0 -- -- 100
2019-02-01 00:00:00 8.4 5 Norte 22 Sur 1.4 -- -- 100
2019-01-31 23:00:00 8.7 6 Sur 11 Sur 7.4 -- -- 100
2019-01-31 22:00:00 9.1 4 Sur 11 Sur 4.4 -- -- 100
2019-01-31 21:00:00 9.6 2 Oeste 17 Oeste 6.2 -- -- 99
2019-01-31 20:00:00 10.1 6 Oeste 35 Norte 6.4 -- -- 97
2019-01-31 19:00:00 15.1 14 Sudoeste 47 Sur 0 -- -- 76
2019-01-31 18:00:00 15.9 19 Sudeste 45 Este 0 -- -- 68
2019-01-31 17:00:00 15.1 12 Nordeste 35 Norte 0 -- -- 73
2019-01-31 16:00:00 15.8 12 Noroeste 39 Sur 0 -- -- 68
2019-01-31 15:00:00 15.3 12 Sudeste 32 Sur 0 -- -- 71
2019-01-31 14:00:00 14.7 11 Sur 25 Sur 0 -- -- 74
2019-01-31 13:00:00 12.2 9 Sudeste 23 Sudeste 0 -- -- 93
2019-01-31 12:00:00 9.6 4 Norte 10 Noroeste 0 -- -- 100
2019-01-31 11:00:00 8.4 4 Norte 8 Noroeste 0.4 -- -- 100
2019-01-31 10:00:00 7.4 3 Noroeste 7 Noroeste 0.8 -- -- 100
2019-01-31 09:00:00 7 3 Noroeste 7 Noroeste 1.8 -- -- 100
2019-01-31 08:00:00 6.7 3 Norte 8 Noroeste 1.2 -- -- 100
2019-01-31 07:00:00 6.4 3 Norte 8 Este 1.8 -- -- 100
2019-01-31 06:00:00 6.4 4 Norte 13 Este 1.4 -- -- 100
2019-01-31 05:00:00 5.8 4 Este 10 Noroeste 0.6 -- -- 100
2019-01-31 04:00:00 5.4 4 Norte 9 Norte 1 -- -- 100
2019-01-31 03:00:00 5.3 3 Norte 9 Noroeste 1 -- -- 99
2019-01-31 02:00:00 5.4 3 Nordeste 14 Este 1.4 -- -- 94
2019-01-31 01:00:00 5.4 6 Sudeste 15 Sudeste 0.6 -- -- 93
2019-01-31 00:00:00 5.7 5 Este 15 Este 1.6 -- -- 93
2019-01-30 23:00:00 6.4 6 Este 14 Este 0.6 -- -- 96
2019-01-30 22:00:00 6.6 3 Nordeste 8 Este 0 -- -- 93
2019-01-30 21:00:00 7.2 5 Sudeste 22 Noroeste 0 -- -- 88
2019-01-30 20:00:00 7 5 Noroeste 12 Norte 0 -- -- 81
2019-01-30 19:00:00 5.9 4 Norte 10 Noroeste 0 -- -- 91
2019-01-30 18:00:00 6.2 7 Norte 12 Sudeste 0 -- -- 92
2019-01-30 17:00:00 8 4 Norte 8 Este 0 -- -- 87
2019-01-30 16:00:00 9.7 3 Sudeste 8 Este 0 -- -- 72
2019-01-30 15:00:00 9.2 4 Nordeste 13 Norte 0 -- -- 71
2019-01-30 14:00:00 9.1 3 Este 10 Norte 0 -- -- 75
2019-01-30 13:00:00 7.9 3 Sudoeste 8 Sudeste 0 -- -- 88
2019-01-30 12:00:00 5.4 3 Nordeste 6 Sudoeste 0 -- -- 99
2019-01-30 11:00:00 4.1 2 Nordeste 9 Noroeste 0.6 -- -- 100
2019-01-30 10:00:00 3.7 0 Calma 4 Sudeste 0.6 -- -- 100
2019-01-30 09:00:00 3.1 0 Calma 3 Noroeste 1 -- -- 100
2019-01-30 08:00:00 3 0 Calma 6 Norte 1.8 -- -- 100
2019-01-30 07:00:00 3 5 Norte 10 Norte 1.2 -- -- 99
2019-01-30 06:00:00 3.5 5 Norte 19 Noroeste 3.4 -- -- 96
2019-01-30 05:00:00 4.3 6 Norte 15 Norte 1 -- -- 97
2019-01-30 04:00:00 4.7 10 Noroeste 27 Norte 1.2 -- -- 95
2019-01-30 03:00:00 4.5 5 Noroeste 17 Norte 0.4 -- -- 97
2019-01-30 02:00:00 5.1 6 Noroeste 34 Noroeste 1 -- -- 93
2019-01-30 01:00:00 5.1 5 Oeste 27 Noroeste 0 -- -- 87
2019-01-30 00:00:00 5 12 Noroeste 26 Norte 0.2 -- -- 91
2019-01-29 23:00:00 5.5 9 Noroeste 37 Noroeste 1 -- -- 91
2019-01-29 22:00:00 6.6 16 Norte 50 Noroeste 0.4 -- -- 84
2019-01-29 21:00:00 5.9 9 Noroeste 58 Norte 2 -- -- 90
2019-01-29 20:00:00 7.5 22 Norte 52 Norte 0 -- -- 84
2019-01-29 19:00:00 7.2 22 Noroeste 61 Noroeste 0.8 -- -- 86
2019-01-29 18:00:00 7.6 22 Noroeste 60 Norte 0.4 -- -- 90
2019-01-29 17:00:00 8.5 22 Norte 61 Noroeste 2 -- -- 86
2019-01-29 16:00:00 8.5 7 Norte 18 Norte 2 -- -- 96
2019-01-29 15:00:00 7.9 5 Noroeste 18 Norte 2 -- -- 95
2019-01-29 14:00:00 7.8 5 Norte 16 Nordeste 1.4 -- -- 93
2019-01-29 13:00:00 7.6 5 Este 14 Nordeste 0 -- -- 94
2019-01-29 12:00:00 7.1 4 Norte 13 Sur 0 -- -- 100
2019-01-29 11:00:00 6.2 2 Sur 8 Noroeste 0.4 -- -- 100
2019-01-29 10:00:00 5.5 2 Noroeste 6 Nordeste 0.2 -- -- 100
2019-01-29 09:00:00 5.2 4 Sudeste 6 Sudeste 0 -- -- 100
2019-01-29 08:00:00 5.2 3 Norte 8 Noroeste 0 -- -- 100
2019-01-29 07:00:00 5.4 0 Calma 4 Norte 0 -- -- 100
2019-01-29 06:00:00 5.5 2 Norte 8 Este 0.2 -- -- 100
2019-01-29 05:00:00 5.5 0 Calma 7 Oeste 0.2 -- -- 100
2019-01-29 04:00:00 5.5 0 Calma 4 Sudeste 0.2 -- -- 100
2019-01-29 03:00:00 5.5 2 Este 6 Noroeste 0.6 -- -- 100
2019-01-29 02:00:00 5.5 0 Calma 10 Noroeste 0.6 -- -- 100
2019-01-29 01:00:00 5.5 3 Sudeste 8 Este 0.6 -- -- 100
2019-01-29 00:00:00 5.7 2 Sudeste 21 Noroeste 0.4 -- -- 98
2019-01-28 23:00:00 6.2 10 Noroeste 43 Noroeste 3 -- -- 94
2019-01-28 22:00:00 6.2 0 Calma 10 Noroeste 0.4 -- -- 98
2019-01-28 21:00:00 6.5 12 Noroeste 24 Noroeste 1 -- -- 95
2019-01-28 20:00:00 6.9 14 Noroeste 33 Noroeste 1.2 -- -- 91
2019-01-28 19:00:00 6.8 8 Noroeste 39 Noroeste 2.6 -- -- 94
2019-01-28 18:00:00 8.3 15 Norte 47 Norte 0.2 -- -- 84
2019-01-28 17:00:00 8.2 19 Noroeste 42 Noroeste 1 -- -- 83
2019-01-28 16:00:00 7.9 18 Noroeste 48 Noroeste 0.8 -- -- 89
2019-01-28 15:00:00 8.9 24 Noroeste 45 Norte 0.4 -- -- 82
2019-01-28 14:00:00 8.9 12 Noroeste 38 Norte 0.4 -- -- 83
2019-01-28 13:00:00 7.6 15 Noroeste 40 Norte 1.6 -- -- 86
2019-01-28 12:00:00 8 23 Noroeste 57 Norte 2 -- -- 88
2019-01-28 11:00:00 7.8 11 Noroeste 41 Norte 1.2 -- -- 93
2019-01-28 10:00:00 8 23 Noroeste 43 Noroeste 2.2 -- -- 89
2019-01-28 09:00:00 8.1 13 Noroeste 40 Noroeste 4 -- -- 94
2019-01-28 08:00:00 8.3 15 Noroeste 46 Noroeste 2.8 -- -- 94
2019-01-28 07:00:00 8.3 16 Norte 46 Noroeste 0.8 -- -- 91
2019-01-28 06:00:00 7.6 5 Noroeste 30 Noroeste 0.8 -- -- 97
2019-01-28 05:00:00 5.3 5 Sudeste 9 Sur 1.4 -- -- 100
2019-01-28 04:00:00 5.2 3 Sudeste 8 Sur 1 -- -- 100
2019-01-28 03:00:00 5.6 7 Noroeste 29 Noroeste 0.4 -- -- 95
2019-01-28 02:00:00 5.3 7 Norte 14 Noroeste 0.4 -- -- 98
2019-01-28 01:00:00 5.2 0 Calma 22 Norte 1 -- -- 98
2019-01-28 00:00:00 5.1 5 Oeste 24 Noroeste 3.2 -- -- 97
2019-01-27 23:00:00 5.1 6 Oeste 18 Noroeste 2.4 -- -- 100
2019-01-27 22:00:00 5.2 4 Oeste 10 Oeste 1.4 -- -- 100
2019-01-27 21:00:00 5.5 4 Este 21 Oeste 0.6 -- -- 96
2019-01-27 20:00:00 6.1 6 Oeste 23 Norte 0 -- -- 89
2019-01-27 19:00:00 5.5 9 Noroeste 16 Noroeste 0.6 -- -- 98
2019-01-27 18:00:00 6.2 5 Norte 28 Noroeste 0.6 -- -- 92
2019-01-27 17:00:00 7.2 13 Noroeste 42 Noroeste 0.2 -- -- 83
2019-01-27 16:00:00 7.3 14 Norte 39 Norte 0 -- -- 83
2019-01-27 15:00:00 6.3 19 Noroeste 54 Norte 1.6 -- -- 87
2019-01-27 14:00:00 7.5 19 Norte 38 Norte 1.2 -- -- 87
2019-01-27 13:00:00 7.5 9 Noroeste 28 Noroeste 0.6 -- -- 92
2019-01-27 12:00:00 6.2 10 Norte 36 Norte 3.4 -- -- 94
2019-01-27 11:00:00 6.3 8 Noroeste 36 Noroeste 0.8 -- -- 93
2019-01-27 10:00:00 6.6 15 Norte 31 Norte 0.8 -- -- 90
2019-01-27 09:00:00 5.7 4 Nordeste 9 Noroeste 0 -- -- 98
2019-01-27 08:00:00 6.7 10 Noroeste 40 Noroeste 0.2 -- -- 88
2019-01-27 07:00:00 7.5 17 Noroeste 44 Noroeste 0.8 -- -- 90
2019-01-27 06:00:00 6.9 6 Sudoeste 16 Oeste 0.6 -- -- 100
2019-01-27 05:00:00 5.8 5 Sudeste 10 Sudeste 0.4 -- -- 100
2019-01-27 04:00:00 5.5 0 Calma 6 Sudeste 0 -- -- 100
2019-01-27 03:00:00 5.9 5 Norte 7 Nordeste 0 -- -- 100
2019-01-27 02:00:00 5.3 0 Calma 8 Sudeste 0 -- -- 100
2019-01-27 01:00:00 5.4 0 Calma 5 Sudeste 0 -- -- 100
2019-01-27 00:00:00 5.3 3 Sudeste 6 Norte 0 -- -- 100
2019-01-26 23:00:00 5.4 3 Norte 7 Sudeste 0 -- -- 100
2019-01-26 22:00:00 5.2 5 Sudeste 8 Este 0 -- -- 100
2019-01-26 21:00:00 6.1 0 Calma 6 Noroeste 0 -- -- 99
2019-01-26 20:00:00 7.1 0 Calma 5 Noroeste 0 -- -- 98
2019-01-26 19:00:00 8.2 2 Norte 6 Noroeste 0 -- -- 95
2019-01-26 18:00:00 9.9 4 Norte 9 Noroeste 0 -- -- 91
2019-01-26 17:00:00 12.6 2 Noroeste 5 Noroeste 0 -- -- 80
2019-01-26 16:00:00 12.9 5 Noroeste 9 Noroeste 0 -- -- 75
2019-01-26 15:00:00 13.4 4 Noroeste 11 Sur 0 -- -- 67
2019-01-26 14:00:00 12.7 4 Oeste 11 Sur 0 -- -- 73
2019-01-26 13:00:00 10.9 3 Nordeste 8 Sudeste 0 -- -- 80
2019-01-26 12:00:00 9.7 3 Sudeste 6 Sur 0 -- -- 92
2019-01-26 11:00:00 8.4 4 Sudeste 6 Sudeste 0 -- -- 100
2019-01-26 10:00:00 7.6 0 Calma 3 Norte 0 -- -- 100
2019-01-26 09:00:00 7 0 Calma 4 Sudeste 0 -- -- 100
2019-01-26 08:00:00 7.1 0 Calma 3 Sudeste 0 -- -- 100
2019-01-26 07:00:00 7 3 Sudeste 8 Oeste 0 -- -- 100
2019-01-26 06:00:00 7 0 Calma 4 Sur 0 -- -- 100
2019-01-26 05:00:00 7 2 Nordeste 6 Noroeste 0 -- -- 100
2019-01-26 04:00:00 7.3 2 Norte 5 Noroeste 0 -- -- 100
2019-01-26 03:00:00 7.5 2 Norte 5 Norte 0 -- -- 100
2019-01-26 02:00:00 7.8 4 Este 14 Noroeste 0 -- -- 100
2019-01-26 01:00:00 8.1 4 Nordeste 7 Nordeste 0.2 -- -- 100
2019-01-26 00:00:00 8.2 2 Sudeste 5 Sur 0.2 -- -- 100
2019-01-25 23:00:00 8.3 3 Oeste 12 Noroeste 0 -- -- 100
2019-01-25 22:00:00 8.3 0 Calma 6 Sudoeste 0.2 -- -- 100
2019-01-25 21:00:00 8.2 5 Sudeste 10 Sudeste 0.2 -- -- 100
2019-01-25 20:00:00 8.2 0 Calma 5 Este 0.2 -- -- 100
2019-01-25 19:00:00 8.4 2 Sudeste 12 Oeste 0.2 -- -- 100
2019-01-25 18:00:00 8.7 4 Noroeste 15 Noroeste 0 -- -- 98
2019-01-25 17:00:00 8.9 7 Noroeste 15 Norte 0.4 -- -- 99
2019-01-25 16:00:00 9.2 4 Noroeste 14 Norte 0 -- -- 96
2019-01-25 15:00:00 9.8 7 Noroeste 24 Norte 0.4 -- -- 96
2019-01-25 14:00:00 9.5 13 Norte 26 Noroeste 0.4 -- -- 96
2019-01-25 13:00:00 9.5 11 Noroeste 24 Noroeste 0.4 -- -- 97
2019-01-25 12:00:00 9.4 11 Noroeste 30 Noroeste 0.4 -- -- 97
2019-01-25 11:00:00 9.2 3 Oeste 12 Noroeste 0 -- -- 99
2019-01-25 10:00:00 8.8 6 Noroeste 35 Noroeste 0.6 -- -- 98
2019-01-25 09:00:00 8.8 4 Oeste 19 Noroeste 1.8 -- -- 100
2019-01-25 08:00:00 8.8 4 Noroeste 21 Noroeste 1.2 -- -- 100
2019-01-25 07:00:00 8.9 9 Noroeste 19 Norte 1 -- -- 100
2019-01-25 06:00:00 8.6 7 Noroeste 37 Noroeste 0.6 -- -- 99
2019-01-25 05:00:00 8.6 10 Noroeste 37 Norte 1 -- -- 100
2019-01-25 04:00:00 5.1 2 Sur 9 Sudeste 1 -- -- 100
2019-01-25 03:00:00 4.7 0 Calma 4 Sudeste 0.8 -- -- 100
2019-01-25 02:00:00 4.6 2 Sudeste 4 Sudeste 0.2 -- -- 100
2019-01-25 01:00:00 4.5 0 Calma 3 Sudeste 0.2 -- -- 100
2019-01-25 00:00:00 4.5 0 Calma 2 Este 0.4 -- -- 100
2019-01-24 23:00:00 4.5 0 Calma 3 Sudeste 1 -- -- 100
2019-01-24 22:00:00 4.4 0 Calma 2 Sudeste 1.4 -- -- 100
2019-01-24 21:00:00 4.4 0 Calma -- -- 0.6 -- -- 100
2019-01-24 20:00:00 4.3 0 Calma 2 Norte 0.4 -- -- 100
2019-01-24 19:00:00 4.3 0 Calma 2 Nordeste 0.4 -- -- 100
2019-01-24 18:00:00 4.3 0 Calma 6 Sudeste 1.2 -- -- 100
2019-01-24 17:00:00 4.4 3 Sur 5 Sur 1.4 -- -- 100
2019-01-24 16:00:00 4.3 4 Sur 8 Sudeste 1.2 -- -- 100
2019-01-24 15:00:00 4 4 Sudeste 8 Este 1.2 -- -- 100
2019-01-24 14:00:00 3.7 3 Sur 5 Sur 1.6 -- -- 100
2019-01-24 13:00:00 3.6 3 Sur 5 Sur 0.6 -- -- 100
2019-01-24 12:00:00 3.4 0 Calma 9 Sur 0.4 -- -- 100
2019-01-24 11:00:00 3.6 3 Sur 6 Sur 1.4 -- -- 100
2019-01-24 10:00:00 3.6 3 Sur 10 Sur 1.6 -- -- 100
2019-01-24 09:00:00 3.9 5 Sur 11 Sudeste 2 -- -- 100
2019-01-24 08:00:00 4.5 4 Este 17 Noroeste 2.6 -- -- 99
2019-01-24 07:00:00 4.9 5 Noroeste 26 Noroeste 3 -- -- 98
2019-01-24 06:00:00 5.1 4 Oeste 17 Norte 3.4 -- -- 99
2019-01-24 05:00:00 5.1 9 Noroeste 20 Norte 3.4 -- -- 99
2019-01-24 04:00:00 5.1 9 Norte 28 Noroeste 4 -- -- 97
2019-01-24 03:00:00 5.1 7 Noroeste 26 Noroeste 3.4 -- -- 97
2019-01-24 02:00:00 5.5 14 Norte 39 Norte 5.2 -- -- 96
2019-01-24 01:00:00 5.5 8 Noroeste 31 Norte 4.2 -- -- 97
2019-01-24 00:00:00 6.3 17 Norte 44 Noroeste 2.8 -- -- 92
2019-01-23 23:00:00 6.4 13 Norte 47 Norte 4.2 -- -- 94
2019-01-23 22:00:00 6.6 16 Noroeste 43 Noroeste 4.4 -- -- 96
2019-01-23 21:00:00 6.8 24 Noroeste 55 Norte 4 -- -- 95
2019-01-23 20:00:00 6.7 19 Norte 51 Noroeste 3.6 -- -- 95
2019-01-23 19:00:00 7 18 Noroeste 51 Norte 3.4 -- -- 95
2019-01-23 18:00:00 7.4 15 Noroeste 47 Norte 1 -- -- 92
2019-01-23 17:00:00 7.2 17 Noroeste 36 Noroeste 1.8 -- -- 93
2019-01-23 16:00:00 7.3 15 Noroeste 36 Norte 2 -- -- 91
2019-01-23 15:00:00 7.4 10 Noroeste 44 Norte 2 -- -- 94
2019-01-23 14:00:00 7.4 14 Noroeste 38 Noroeste 3.4 -- -- 94
2019-01-23 13:00:00 7.7 21 Norte 44 Norte 2.8 -- -- 90
2019-01-23 12:00:00 8.3 17 Noroeste 44 Noroeste 1.4 -- -- 90
2019-01-23 11:00:00 7.8 18 Noroeste 51 Norte 2.8 -- -- 93
2019-01-23 10:00:00 8.4 13 Norte 39 Norte 1.6 -- -- 94
2019-01-23 09:00:00 8.9 14 Noroeste 57 Norte 1.6 -- -- 92
2019-01-23 08:00:00 9.7 17 Norte 45 Norte 1.4 -- -- 88
2019-01-23 07:00:00 5.3 5 Sudeste 10 Sudeste 5.8 -- -- 100
2019-01-23 06:00:00 4.5 3 Noroeste 9 Norte 3.6 -- -- 100
2019-01-23 05:00:00 4.4 4 Norte 5 Noroeste 2.4 -- -- 100
2019-01-23 04:00:00 4.4 0 Calma 6 Sur 3 -- -- 100
2019-01-23 03:00:00 4.5 4 Noroeste 8 Norte 3 -- -- 100
2019-01-23 02:00:00 4.3 0 Calma 12 Oeste 2.4 -- -- 100
2019-01-23 01:00:00 3.8 3 Sudeste 10 Sudeste 2 -- -- 100
2019-01-23 00:00:00 3.8 0 Calma 4 Este 1.8 -- -- 100
2019-01-22 23:00:00 3.7 2 Sudeste 6 Sur 1.6 -- -- 100
2019-01-22 22:00:00 4 5 Norte 11 Nordeste 1 -- -- 98
2019-01-22 21:00:00 4.3 4 Sudoeste 10 Sudoeste 1.4 -- -- 96
2019-01-22 20:00:00 4.9 4 Oeste 17 Norte 0.8 -- -- 96
2019-01-22 19:00:00 5.3 8 Norte 22 Norte 0.4 -- -- 94
2019-01-22 18:00:00 5.3 5 Noroeste 17 Norte 0 -- -- 96
2019-01-22 17:00:00 4.9 3 Oeste 8 Sur 0.2 -- -- 100
2019-01-22 16:00:00 4.8 3 Sudoeste 23 Noroeste 2.6 -- -- 98
2019-01-22 15:00:00 5.4 10 Noroeste 19 Norte 1.6 -- -- 95
2019-01-22 14:00:00 5 0 Calma 8 Oeste 2.6 -- -- 100
2019-01-22 13:00:00 5.1 3 Norte 21 Norte 1.2 -- -- 100
2019-01-22 12:00:00 4.5 6 Norte 13 Norte 1 -- -- 100
2019-01-22 11:00:00 3.2 3 Sudeste 6 Sudeste 0.2 -- -- 100
2019-01-22 10:00:00 2.4 0 Calma 4 Sudeste 0 -- -- 100
2019-01-22 09:00:00 1.9 0 Calma 5 Sudeste 0.2 -- -- 100
2019-01-22 08:00:00 1.7 3 Este 6 Sudeste 0 -- -- 100
2019-01-22 07:00:00 1.2 3 Sudeste 8 Sudeste 0 -- -- 100
2019-01-22 06:00:00 1 3 Sudeste 6 Sudeste 0 -- -- 100
2019-01-22 05:00:00 0.8 3 Norte 6 Este 0 -- -- 100
2019-01-22 04:00:00 0.8 0 Calma 6 Este 0 -- -- 100
2019-01-22 03:00:00 0.9 4 Sudeste 5 Sudeste 0 -- -- 100
2019-01-22 02:00:00 1.6 3 Norte 5 Norte 0 -- -- 100
2019-01-22 01:00:00 2.1 0 Calma 5 Norte 0 -- -- 100
2019-01-22 00:00:00 2.3 0 Calma 8 Noroeste 0 -- -- 100
2019-01-21 23:00:00 2.8 5 Noroeste 8 Noroeste 0 -- -- 98
2019-01-21 22:00:00 4.3 8 Noroeste 22 Noroeste 0.6 -- -- 93
2019-01-21 21:00:00 3.9 5 Noroeste 12 Oeste 0 -- -- 92
2019-01-21 20:00:00 4 0 Calma 6 Noroeste 0 -- -- 90
2019-01-21 19:00:00 4.8 5 Noroeste 11 Norte 0 -- -- 86
2019-01-21 18:00:00 5.8 6 Norte 15 Noroeste 0 -- -- 81
2019-01-21 17:00:00 6.3 6 Noroeste 22 Nordeste 0 -- -- 80
2019-01-21 16:00:00 7.5 14 Norte 27 Norte 0 -- -- 74
2019-01-21 15:00:00 6.8 13 Norte 24 Norte 0 -- -- 84
2019-01-21 14:00:00 6.4 0 Calma 27 Noroeste 0.2 -- -- 92
2019-01-21 13:00:00 6.6 6 Noroeste 19 Noroeste 0 -- -- 83
2019-01-21 12:00:00 6.1 7 Noroeste 17 Noroeste 0 -- -- 90
2019-01-21 11:00:00 6.1 6 Noroeste 19 Noroeste 0 -- -- 93
2019-01-21 10:00:00 5.1 0 Calma 6 Sudeste 0 -- -- 100
2019-01-21 09:00:00 4.8 2 Este 6 Este 0 -- -- 100
2019-01-21 08:00:00 4.9 0 Calma 6 Este 0.2 -- -- 100
2019-01-21 07:00:00 5 3 Noroeste 13 Noroeste 2.2 -- -- 100
2019-01-21 06:00:00 5.2 4 Sudeste 8 Sudeste 2.2 -- -- 100
2019-01-21 05:00:00 5.2 5 Sudeste 8 Noroeste 2.8 -- -- 100
2019-01-21 04:00:00 5 3 Sur 6 Sudeste 0 -- -- 100
2019-01-21 03:00:00 5 0 Calma 7 Norte 0.4 -- -- 100
2019-01-21 02:00:00 5.5 2 Sur 6 Norte 2.4 -- -- 100
2019-01-21 01:00:00 5.6 0 Calma 12 Norte 0.8 -- -- 100
2019-01-21 00:00:00 5.6 6 Noroeste 16 Noroeste 1.2 -- -- 100
2019-01-20 23:00:00 5.8 2 Nordeste 15 Noroeste 1 -- -- 100
2019-01-20 22:00:00 5.8 0 Calma 7 Noroeste 2 -- -- 100
2019-01-20 21:00:00 5.9 2 Este 10 Este 0 -- -- 100
2019-01-20 20:00:00 6.2 4 Sudeste 7 Sudeste 0.4 -- -- 100
2019-01-20 19:00:00 6.8 2 Norte 5 Sudeste 0.6 -- -- 100
2019-01-20 18:00:00 7.5 3 Sudeste 15 Oeste 0.6 -- -- 98
2019-01-20 17:00:00 7.6 3 Norte 10 Este 0 -- -- 96
2019-01-20 16:00:00 7.9 4 Sudeste 22 Noroeste 1 -- -- 94
2019-01-20 15:00:00 8.3 3 Sur 12 Norte 0 -- -- 96
2019-01-20 14:00:00 7.5 7 Noroeste 35 Noroeste 2 -- -- 94
2019-01-20 13:00:00 7.7 8 Sudeste 13 Sudeste 0 -- -- 97
2019-01-20 12:00:00 6.8 8 Noroeste 19 Oeste 2.6 -- -- 99
2019-01-20 11:00:00 6.5 2 Este 11 Noroeste 1.8 -- -- 100
2019-01-20 10:00:00 5.4 3 Sur 11 Norte 0.4 -- -- 100
2019-01-20 09:00:00 5.1 4 Sudeste 12 Noroeste 1.4 -- -- 100
2019-01-20 08:00:00 5.1 3 Norte 6 Sudeste 0.4 -- -- 100
2019-01-20 07:00:00 5.1 2 Sudoeste 6 Sudeste 0.8 -- -- 100
2019-01-20 06:00:00 5.1 2 Norte 4 Norte 0 -- -- 100
2019-01-20 05:00:00 5.4 0 Calma 2 Norte 0.2 -- -- 100
2019-01-20 04:00:00 5.4 0 Calma 4 Sudeste 0 -- -- 100
2019-01-20 03:00:00 5.4 0 Calma 4 Norte 0.2 -- -- 100
2019-01-20 02:00:00 5.5 3 Norte 5 Norte 0.2 -- -- 100
2019-01-20 01:00:00 5.6 3 Noroeste 6 Noroeste 0 -- -- 100
2019-01-20 00:00:00 5.9 4 Noroeste 6 Noroeste 0.2 -- -- 98
2019-01-19 23:00:00 6.6 4 Sudeste 11 Sudeste 0.4 -- -- 92
2019-01-19 22:00:00 7.3 4 Sur 18 Sudeste 0 -- -- 87
2019-01-19 21:00:00 8.2 9 Sudeste 25 Sudeste 0 -- -- 77
2019-01-19 20:00:00 8.6 10 Sudeste 24 Sur 0 -- -- 73
2019-01-19 19:00:00 8.4 9 Sudeste 28 Sudeste 0 -- -- 73
2019-01-19 18:00:00 8.8 13 Sudeste 25 Sudeste 0 -- -- 69
2019-01-19 17:00:00 9.3 10 Sudeste 20 Sudeste 0 -- -- 68
2019-01-19 16:00:00 9.6 8 Sudeste 18 Sudeste 0 -- -- 72
2019-01-19 15:00:00 9.7 11 Sur 23 Sur 0 -- -- 71
2019-01-19 14:00:00 9.3 5 Sur 9 Sudoeste 0 -- -- 77
2019-01-19 13:00:00 8.5 4 Sudeste 9 Sudeste 0 -- -- 93
2019-01-19 12:00:00 7.2 4 Sur 8 Sur 0 -- -- 100
2019-01-19 11:00:00 3.5 3 Sudeste 6 Sudeste 0 -- -- 100
2019-01-19 10:00:00 2.1 3 Sur 5 Este 0 -- -- 100
2019-01-19 09:00:00 1.8 0 Calma 5 Sudeste 0 -- -- 100
2019-01-19 08:00:00 1.9 2 Este 5 Noroeste 0 -- -- 100
2019-01-19 07:00:00 2.7 2 Sudeste 8 Noroeste 0 -- -- 100
2019-01-19 06:00:00 3.6 2 Norte 4 Este 0 -- -- 100
2019-01-19 05:00:00 4.1 0 Calma 5 Norte 0 -- -- 100
2019-01-19 04:00:00 4.1 3 Noroeste 6 Sudeste 0 -- -- 100
2019-01-19 03:00:00 4.1 2 Este 5 Sudeste 0.2 -- -- 100
2019-01-19 02:00:00 4.2 0 Calma 5 Norte 0 -- -- 100
2019-01-19 01:00:00 4 2 Sudeste 6 Sudeste 0.6 -- -- 100
2019-01-19 00:00:00 3.7 6 Sudeste 10 Sudeste 0.2 -- -- 100